createdAt,value
2017-10-18T00:01:23.890Z,17.10
2017-10-18T00:03:51.162Z,14.93
2017-10-18T00:06:18.454Z,13.60
2017-10-18T00:08:45.728Z,12.80
2017-10-18T00:11:13.014Z,13.20
2017-10-18T00:13:40.283Z,14.57
2017-10-18T00:16:07.572Z,14.03
2017-10-18T00:18:34.844Z,17.63
2017-10-18T00:21:02.126Z,13.43
2017-10-18T00:23:29.402Z,13.03
2017-10-18T00:25:56.696Z,12.27
2017-10-18T00:28:23.971Z,14.77
2017-10-18T00:30:51.265Z,16.50
2017-10-18T00:33:18.535Z,13.47
2017-10-18T00:35:45.824Z,13.07
2017-10-18T00:38:13.091Z,13.60
2017-10-18T00:40:40.384Z,13.90
2017-10-18T00:43:07.652Z,13.27
2017-10-18T00:45:34.947Z,13.53
2017-10-18T00:48:02.237Z,13.20
2017-10-18T00:50:29.507Z,14.43
2017-10-18T00:52:56.804Z,13.10
2017-10-18T00:55:24.076Z,12.40
2017-10-18T00:57:51.358Z,12.73
2017-10-18T01:00:18.640Z,13.40
2017-10-18T01:02:45.937Z,13.90
2017-10-18T01:05:13.210Z,14.07
2017-10-18T01:07:40.494Z,13.60
2017-10-18T01:10:07.764Z,12.57
2017-10-18T01:12:35.051Z,13.83
2017-10-18T01:15:02.331Z,12.30
2017-10-18T01:17:29.618Z,13.30
2017-10-18T01:19:56.892Z,13.63
2017-10-18T01:22:24.178Z,14.43
2017-10-18T01:24:51.460Z,20.03
2017-10-18T01:27:18.751Z,13.40
2017-10-18T01:29:46.028Z,14.20
2017-10-18T01:32:13.323Z,13.57
2017-10-18T01:34:40.593Z,11.73
2017-10-18T01:37:07.879Z,15.43
2017-10-18T01:39:35.159Z,12.80
2017-10-18T01:42:02.446Z,13.83
2017-10-18T01:44:29.719Z,13.60
2017-10-18T01:46:57.011Z,14.03
2017-10-18T01:49:24.282Z,14.60
2017-10-18T01:51:51.572Z,13.10
2017-10-18T01:54:18.838Z,13.03
2017-10-18T01:56:46.131Z,15.47
2017-10-18T01:59:13.399Z,14.63
2017-10-18T02:01:40.692Z,14.67
2017-10-18T02:04:07.967Z,14.10
2017-10-18T02:06:35.239Z,13.63
2017-10-18T02:09:02.526Z,13.33
2017-10-18T02:11:30.242Z,14.70
2017-10-18T02:13:57.535Z,15.90
2017-10-18T02:16:24.809Z,13.70
2017-10-18T02:18:52.118Z,14.90
2017-10-18T02:21:19.378Z,22.30
2017-10-18T02:23:46.670Z,17.27
2017-10-18T02:26:13.944Z,19.03
2017-10-18T02:28:41.243Z,17.90
2017-10-18T02:31:08.519Z,21.20
2017-10-18T02:33:35.806Z,20.60
2017-10-18T02:36:03.083Z,19.93
2017-10-18T02:38:30.381Z,20.03
2017-10-18T02:40:57.655Z,19.03
2017-10-18T02:43:24.959Z,18.30
2017-10-18T02:45:52.207Z,17.80
2017-10-18T02:48:19.495Z,19.70
2017-10-18T02:50:46.762Z,16.93
2017-10-18T02:53:14.053Z,16.67
2017-10-18T02:55:41.329Z,18.20
2017-10-18T02:58:08.619Z,15.70
2017-10-18T03:00:35.887Z,17.03
2017-10-18T03:03:03.191Z,16.87
2017-10-18T03:05:30.462Z,16.37
2017-10-18T03:07:57.749Z,16.90
2017-10-18T03:10:25.027Z,16.70
2017-10-18T03:12:52.318Z,20.40
2017-10-18T03:15:19.586Z,20.67
2017-10-18T03:17:46.889Z,21.67
2017-10-18T03:20:14.156Z,20.10
2017-10-18T03:22:41.425Z,20.50
2017-10-18T03:25:08.711Z,20.80
2017-10-18T03:27:35.985Z,20.37
2017-10-18T03:30:03.282Z,18.70
2017-10-18T03:32:30.542Z,21.23
2017-10-18T03:34:57.835Z,20.20
2017-10-18T03:37:25.108Z,21.43
2017-10-18T03:39:52.403Z,19.50
2017-10-18T03:42:19.670Z,21.93
2017-10-18T03:44:46.960Z,20.60
2017-10-18T03:47:14.235Z,20.13
2017-10-18T03:49:41.526Z,22.50
2017-10-18T03:52:08.794Z,20.70
2017-10-18T03:54:36.078Z,20.77
2017-10-18T03:57:03.352Z,21.70
2017-10-18T03:59:30.646Z,20.60
2017-10-18T04:01:57.913Z,20.77
2017-10-18T04:04:25.203Z,22.23
2017-10-18T04:06:52.473Z,20.80
2017-10-18T04:09:19.768Z,20.63
2017-10-18T04:11:47.043Z,17.87
2017-10-18T04:14:14.339Z,20.10
2017-10-18T04:16:41.611Z,19.93
2017-10-18T04:19:08.901Z,22.30
2017-10-18T04:21:36.175Z,19.27
2017-10-18T04:24:03.475Z,19.60
2017-10-18T04:26:30.747Z,19.40
2017-10-18T04:28:58.035Z,18.40
2017-10-18T04:31:25.308Z,17.60
2017-10-18T04:33:52.599Z,16.90
2017-10-18T04:36:19.870Z,18.70
2017-10-18T04:38:47.180Z,17.93
2017-10-18T04:41:14.449Z,18.53
2017-10-18T04:43:41.719Z,23.70
2017-10-18T04:46:09.863Z,21.83
2017-10-18T04:48:37.131Z,22.00
2017-10-18T04:51:04.419Z,20.63
2017-10-18T04:53:31.692Z,23.80
2017-10-18T04:55:58.985Z,25.13
2017-10-18T04:58:26.252Z,25.57
2017-10-18T05:00:53.551Z,26.77
2017-10-18T05:03:20.824Z,27.13
2017-10-18T05:05:48.107Z,26.60
2017-10-18T05:08:15.388Z,27.63
2017-10-18T05:10:42.691Z,29.43
2017-10-18T05:13:09.969Z,25.83
2017-10-18T05:15:37.262Z,26.07
2017-10-18T05:18:04.548Z,27.33
2017-10-18T05:20:31.819Z,27.20
2017-10-18T05:22:59.086Z,24.33
2017-10-18T05:25:26.392Z,26.40
2017-10-18T05:27:53.660Z,25.03
2017-10-18T05:30:20.937Z,28.03
2017-10-18T05:32:48.235Z,25.77
2017-10-18T05:35:15.507Z,25.73
2017-10-18T05:37:42.812Z,27.73
2017-10-18T05:40:10.087Z,27.03
2017-10-18T05:42:37.379Z,28.57
2017-10-18T05:45:04.652Z,28.37
2017-10-18T05:47:31.947Z,28.40
2017-10-18T05:49:59.214Z,30.03
2017-10-18T05:52:26.515Z,27.50
2017-10-18T05:54:53.786Z,27.93
2017-10-18T05:57:21.085Z,27.97
2017-10-18T05:59:48.379Z,26.53
2017-10-18T06:02:15.692Z,27.40
2017-10-18T06:04:42.960Z,27.37
2017-10-18T06:07:10.226Z,25.90
2017-10-18T06:09:37.531Z,25.00
2017-10-18T06:12:04.841Z,23.63
2017-10-18T06:14:32.117Z,24.33
2017-10-18T06:16:59.384Z,23.93
2017-10-18T06:19:27.559Z,24.13
2017-10-18T06:21:54.814Z,25.97
2017-10-18T06:24:22.123Z,25.93
2017-10-18T06:26:49.408Z,25.10
2017-10-18T06:29:16.728Z,26.93
2017-10-18T06:31:44.026Z,26.70
2017-10-18T06:34:11.335Z,26.97
2017-10-18T06:36:42.044Z,29.07
2017-10-18T06:39:11.039Z,28.80
2017-10-18T06:41:38.315Z,26.00
2017-10-18T06:44:05.587Z,27.30
2017-10-18T06:46:32.890Z,26.90
2017-10-18T06:49:00.187Z,29.40
2017-10-18T06:51:27.480Z,30.00
2017-10-18T06:53:54.751Z,27.00
2017-10-18T06:56:22.055Z,26.53
2017-10-18T06:58:49.331Z,27.03
2017-10-18T07:01:16.596Z,29.80
2017-10-18T07:03:43.904Z,25.83
2017-10-18T07:06:11.180Z,26.67
2017-10-18T07:08:38.452Z,24.67
2017-10-18T07:11:05.760Z,27.10
2017-10-18T07:13:33.101Z,25.30
2017-10-18T07:16:00.375Z,23.90
2017-10-18T07:18:27.667Z,26.40
2017-10-18T07:20:54.989Z,25.83
2017-10-18T07:23:22.234Z,25.90
2017-10-18T07:25:49.535Z,25.57
2017-10-18T07:28:16.844Z,23.50
2017-10-18T07:30:44.110Z,25.23
2017-10-18T07:33:11.385Z,25.40
2017-10-18T07:35:38.679Z,22.60
2017-10-18T07:38:05.967Z,24.80
2017-10-18T07:40:33.264Z,23.13
2017-10-18T07:43:00.530Z,20.20
2017-10-18T07:45:27.814Z,21.13
2017-10-18T07:47:55.089Z,20.50
2017-10-18T07:50:22.392Z,20.13
2017-10-18T07:52:49.665Z,18.90
2017-10-18T07:55:16.978Z,19.23
2017-10-18T07:57:44.266Z,18.70
2017-10-18T08:00:11.536Z,18.47
2017-10-18T08:02:38.830Z,17.40
2017-10-18T08:05:06.102Z,17.30
2017-10-18T08:07:33.405Z,18.60
2017-10-18T08:10:00.707Z,18.40
2017-10-18T08:12:27.998Z,16.30
2017-10-18T08:14:55.294Z,17.60
2017-10-18T08:17:22.598Z,21.13
2017-10-18T08:19:49.906Z,20.07
2017-10-18T08:22:17.183Z,20.37
2017-10-18T08:24:44.458Z,19.57
2017-10-18T08:27:11.747Z,18.20
2017-10-18T08:29:39.017Z,17.73
2017-10-18T08:32:06.323Z,16.13
2017-10-18T08:34:33.591Z,14.23
2017-10-18T08:37:00.867Z,13.33
2017-10-18T08:39:28.179Z,13.00
2017-10-18T08:41:55.453Z,12.50
2017-10-18T08:44:22.758Z,11.27
2017-10-18T08:46:50.030Z,10.40
2017-10-18T08:49:17.334Z,10.97
2017-10-18T08:51:44.607Z,10.90
2017-10-18T08:54:11.879Z,9.83
2017-10-18T08:56:39.185Z,11.20
2017-10-18T08:59:06.463Z,9.87
2017-10-18T09:01:33.750Z,10.27
2017-10-18T09:04:01.047Z,11.50
2017-10-18T09:06:28.323Z,10.63
2017-10-18T09:08:55.660Z,10.83
2017-10-18T09:11:22.927Z,10.30
2017-10-18T09:13:50.204Z,10.70
2017-10-18T09:16:17.511Z,9.77
2017-10-18T09:18:44.862Z,10.50
2017-10-18T09:21:12.671Z,11.23
2017-10-18T09:23:39.987Z,10.63
2017-10-18T09:26:07.260Z,11.70
2017-10-18T09:28:34.530Z,10.70
2017-10-18T09:31:01.845Z,11.23
2017-10-18T09:33:29.108Z,11.20
2017-10-18T09:35:56.395Z,10.33
2017-10-18T09:38:23.736Z,9.83
2017-10-18T09:40:51.007Z,10.60
2017-10-18T09:43:18.311Z,10.83
2017-10-18T09:45:45.667Z,10.53
2017-10-18T09:48:12.999Z,10.07
2017-10-18T09:50:40.280Z,9.67
2017-10-18T09:53:07.620Z,10.43
2017-10-18T09:55:34.955Z,10.50
2017-10-18T09:58:02.260Z,8.60
2017-10-18T10:00:29.531Z,9.07
2017-10-18T10:02:56.892Z,9.03
2017-10-18T10:05:24.191Z,10.60
2017-10-18T10:07:51.539Z,9.53
2017-10-18T10:10:18.826Z,10.27
2017-10-18T10:12:46.139Z,9.73
2017-10-18T10:15:13.433Z,10.70
2017-10-18T10:17:40.764Z,10.20
2017-10-18T10:20:08.069Z,11.37
2017-10-18T10:22:35.348Z,10.80
2017-10-18T10:27:41.298Z,11.13
2017-10-18T10:30:08.613Z,9.90
2017-10-18T10:32:35.962Z,10.13
2017-10-18T10:35:03.253Z,9.37
2017-10-18T10:37:30.541Z,9.20
2017-10-18T10:39:57.868Z,9.43
2017-10-18T10:42:25.159Z,8.60
2017-10-18T10:44:52.457Z,9.07
2017-10-18T10:47:19.762Z,8.60
2017-10-18T10:49:47.048Z,9.27
2017-10-18T10:52:14.359Z,9.57
2017-10-18T10:54:41.634Z,9.93
2017-10-18T10:57:08.935Z,8.77
2017-10-18T10:59:36.219Z,8.60
2017-10-18T11:02:03.553Z,8.63
2017-10-18T11:04:30.798Z,8.47
2017-10-18T11:06:58.107Z,9.10
2017-10-18T11:09:25.388Z,10.20
2017-10-18T11:11:52.685Z,9.60
2017-10-18T11:14:19.978Z,9.60
2017-10-18T11:16:47.301Z,8.90
2017-10-18T11:19:14.578Z,8.97
2017-10-18T11:21:41.838Z,8.73
2017-10-18T11:24:09.130Z,9.07
2017-10-18T11:26:36.415Z,10.20
2017-10-18T11:29:03.722Z,8.77
2017-10-18T11:31:30.994Z,9.10
2017-10-18T11:33:58.296Z,9.93
2017-10-18T11:36:25.576Z,10.93
2017-10-18T11:38:52.870Z,10.80
2017-10-18T11:41:20.154Z,12.00
2017-10-18T11:43:47.502Z,12.40
2017-10-18T11:46:14.764Z,11.97
2017-10-18T11:48:42.072Z,11.50
2017-10-18T11:51:09.407Z,10.80
2017-10-18T11:53:36.694Z,11.10
2017-10-18T11:56:03.966Z,12.10
2017-10-18T11:58:31.309Z,12.20
2017-10-18T12:00:58.576Z,12.77
2017-10-18T12:03:25.874Z,12.77
2017-10-18T12:05:53.159Z,12.33
2017-10-18T12:08:20.459Z,11.83
2017-10-18T12:10:47.732Z,12.93
2017-10-18T12:13:15.049Z,12.23
2017-10-18T12:15:42.344Z,12.30
2017-10-18T12:18:09.673Z,11.83
2017-10-18T12:20:36.974Z,12.03
2017-10-18T12:23:04.267Z,11.10
2017-10-18T12:25:31.566Z,10.77
2017-10-18T12:27:58.846Z,12.47
2017-10-18T12:30:26.169Z,10.70
2017-10-18T12:32:53.444Z,12.17
2017-10-18T12:35:20.742Z,12.20
2017-10-18T12:37:48.051Z,12.27
2017-10-18T12:40:15.350Z,12.27
2017-10-18T12:42:42.622Z,11.50
2017-10-18T12:45:09.919Z,10.87
2017-10-18T12:47:37.216Z,10.60
2017-10-18T12:50:04.536Z,10.17
2017-10-18T12:52:31.813Z,9.87
2017-10-18T12:54:59.091Z,9.80
2017-10-18T12:57:26.425Z,9.50
2017-10-18T12:59:53.768Z,10.47
2017-10-18T13:02:21.064Z,9.90
2017-10-18T13:04:48.369Z,9.90
2017-10-18T13:07:15.658Z,10.73
2017-10-18T13:09:42.967Z,10.47
2017-10-18T13:12:12.353Z,9.97
2017-10-18T13:14:39.684Z,10.00
2017-10-18T13:17:06.951Z,9.40
2017-10-18T13:19:34.241Z,10.00
2017-10-18T13:22:01.532Z,10.40
2017-10-18T13:24:28.839Z,10.30
2017-10-18T13:26:56.137Z,9.80
2017-10-18T13:29:25.084Z,10.17
2017-10-18T13:31:52.381Z,10.67
2017-10-18T13:34:19.655Z,10.77
2017-10-18T13:36:46.972Z,12.20
2017-10-18T13:39:14.275Z,10.80
2017-10-18T13:41:41.577Z,10.80
2017-10-18T13:44:08.869Z,10.20
2017-10-18T13:46:36.160Z,8.97
2017-10-18T13:49:03.446Z,10.90
2017-10-18T13:51:30.785Z,10.83
2017-10-18T13:53:58.060Z,10.30
2017-10-18T13:56:25.366Z,11.63
2017-10-18T13:58:52.670Z,9.60
2017-10-18T14:01:19.955Z,9.00
2017-10-18T14:03:47.265Z,8.83
2017-10-18T14:06:14.564Z,9.10
2017-10-18T14:08:41.860Z,9.60
2017-10-18T14:11:09.150Z,8.03
2017-10-18T14:13:36.475Z,8.90
2017-10-18T14:16:03.757Z,9.00
2017-10-18T14:18:31.029Z,9.40
2017-10-18T14:20:58.367Z,10.20
2017-10-18T14:23:25.678Z,8.50
2017-10-18T14:25:52.957Z,8.90
2017-10-18T14:28:20.282Z,9.37
2017-10-18T14:30:47.554Z,9.57
2017-10-18T14:33:14.857Z,9.47
2017-10-18T14:35:42.161Z,9.07
2017-10-18T14:38:09.461Z,8.73
2017-10-18T14:40:36.719Z,8.97
2017-10-18T14:43:04.046Z,9.30
2017-10-18T14:45:31.327Z,8.47
2017-10-18T14:47:58.620Z,9.70
2017-10-18T14:50:25.912Z,9.90
2017-10-18T14:52:53.231Z,10.37
2017-10-18T14:55:20.547Z,9.20
2017-10-18T14:57:47.979Z,9.33
2017-10-18T15:00:15.293Z,11.23
2017-10-18T15:02:42.574Z,11.03
2017-10-18T15:05:09.887Z,11.27
2017-10-18T15:07:37.155Z,10.53
2017-10-18T15:10:04.459Z,10.90
2017-10-18T15:12:31.737Z,9.87
2017-10-18T15:14:59.031Z,10.03
2017-10-18T15:17:26.337Z,10.50
2017-10-18T15:19:53.673Z,10.37
2017-10-18T15:22:21.213Z,10.50
2017-10-18T15:24:48.514Z,9.23
2017-10-18T15:27:15.799Z,10.93
2017-10-18T15:29:43.119Z,10.17
2017-10-18T15:32:10.401Z,9.80
2017-10-18T15:34:37.691Z,10.30
2017-10-18T15:37:04.979Z,10.07
2017-10-18T15:39:32.300Z,9.27
2017-10-18T15:41:59.581Z,8.80
2017-10-18T15:44:26.908Z,9.80
2017-10-18T15:46:54.204Z,9.10
2017-10-18T15:49:21.495Z,9.87
2017-10-18T15:51:48.805Z,10.37
2017-10-18T15:54:16.097Z,10.43
2017-10-18T15:56:43.410Z,10.90
2017-10-18T15:59:10.699Z,10.63
2017-10-18T16:01:38.027Z,10.23
2017-10-18T16:04:05.309Z,10.60
2017-10-18T16:06:32.652Z,11.27
2017-10-18T16:08:59.984Z,11.70
2017-10-18T16:11:27.295Z,11.60
2017-10-18T16:13:54.603Z,12.03
2017-10-18T16:16:21.941Z,13.83
2017-10-18T16:18:49.218Z,11.57
2017-10-18T16:21:16.552Z,11.60
2017-10-18T16:23:43.837Z,12.83
2017-10-18T16:26:11.152Z,12.30
2017-10-18T16:28:38.440Z,12.20
2017-10-18T16:31:05.773Z,13.50
2017-10-18T16:33:33.051Z,13.53
2017-10-18T16:36:00.366Z,12.80
2017-10-18T16:38:27.661Z,13.33
2017-10-18T16:40:54.971Z,14.40
2017-10-18T16:43:22.259Z,14.47
2017-10-18T16:45:49.574Z,14.40
2017-10-18T16:48:16.857Z,14.07
2017-10-18T16:50:44.155Z,14.20
2017-10-18T16:53:11.443Z,15.20
2017-10-18T16:55:38.750Z,16.03
2017-10-18T16:58:06.046Z,14.80
2017-10-18T17:00:33.407Z,14.93
2017-10-18T17:03:00.755Z,15.47
2017-10-18T17:05:28.090Z,14.80
2017-10-18T17:07:55.391Z,14.40
2017-10-18T17:10:22.673Z,14.90
2017-10-18T17:12:49.976Z,14.60
2017-10-18T17:15:17.263Z,13.27
2017-10-18T17:17:44.584Z,15.43
2017-10-18T17:20:11.895Z,12.70
2017-10-18T17:22:39.199Z,14.00
2017-10-18T17:25:06.486Z,13.10
2017-10-18T17:27:33.830Z,15.47
2017-10-18T17:30:01.429Z,12.20
2017-10-18T17:32:29.511Z,12.60
2017-10-18T17:34:56.804Z,13.73
2017-10-18T17:37:24.092Z,13.10
2017-10-18T17:39:51.495Z,13.83
2017-10-18T17:42:18.803Z,14.70
2017-10-18T17:44:46.082Z,13.97
2017-10-18T17:47:13.407Z,14.17
2017-10-18T17:49:40.741Z,16.13
2017-10-18T17:52:08.065Z,15.17
2017-10-18T17:54:35.391Z,15.50
2017-10-18T17:57:02.716Z,14.80
2017-10-18T17:59:29.982Z,14.87
2017-10-18T18:01:57.306Z,16.90
2017-10-18T18:04:24.604Z,15.90
2017-10-18T18:06:51.916Z,16.00
2017-10-18T18:09:19.219Z,16.57
2017-10-18T18:11:46.516Z,14.17
2017-10-18T18:14:13.824Z,13.80
2017-10-18T18:16:41.120Z,18.03
2017-10-18T18:19:08.413Z,13.70
2017-10-18T18:21:35.733Z,17.20
2017-10-18T18:24:03.004Z,15.17
2017-10-18T18:26:30.342Z,15.80
2017-10-18T18:28:57.689Z,14.70
2017-10-18T18:31:24.987Z,15.50
2017-10-18T18:33:52.906Z,14.60
2017-10-18T18:36:20.203Z,14.77
2017-10-18T18:38:47.500Z,15.87
2017-10-18T18:41:14.771Z,15.33
2017-10-18T18:43:42.077Z,15.83
2017-10-18T18:46:09.389Z,17.67
2017-10-18T18:48:39.331Z,14.80
2017-10-18T18:51:07.592Z,15.33
2017-10-18T18:53:34.963Z,17.80
2017-10-18T18:56:02.371Z,14.47
2017-10-18T18:58:29.681Z,14.37
2017-10-18T19:00:56.987Z,14.93
2017-10-18T19:03:24.351Z,16.30
2017-10-18T19:05:51.651Z,13.60
2017-10-18T19:08:18.975Z,15.07
2017-10-18T19:10:46.316Z,15.60
2017-10-18T19:13:13.666Z,14.83
2017-10-18T19:15:40.957Z,13.40
2017-10-18T19:18:08.308Z,16.20
2017-10-18T19:20:35.620Z,14.93
2017-10-18T19:23:03.001Z,13.70
2017-10-18T19:25:30.288Z,20.00
2017-10-18T19:27:57.631Z,13.37
2017-10-18T19:30:24.919Z,16.67
2017-10-18T19:32:52.269Z,14.83
2017-10-18T19:35:19.552Z,18.30
2017-10-18T19:37:46.877Z,14.70
2017-10-18T19:40:14.212Z,12.40
2017-10-18T19:45:34.708Z,14.67
2017-10-18T19:48:02.048Z,18.20
2017-10-18T19:50:29.351Z,13.60
2017-10-18T19:52:56.655Z,15.07
2017-10-18T19:55:23.980Z,16.37
2017-10-18T19:57:53.614Z,15.47
2017-10-18T20:00:21.536Z,13.97
2017-10-18T20:02:48.890Z,12.97
2017-10-18T20:05:16.199Z,15.47
2017-10-18T20:07:43.765Z,17.20
2017-10-18T20:10:11.054Z,16.13
2017-10-18T20:12:38.372Z,13.77
2017-10-18T20:15:05.699Z,18.50
2017-10-18T20:17:33.022Z,15.67
2017-10-18T20:20:00.539Z,13.70
2017-10-18T20:22:28.107Z,14.33
2017-10-18T20:24:55.414Z,14.13
2017-10-18T20:27:22.715Z,16.10
2017-10-18T20:29:50.179Z,13.80
2017-10-18T20:32:17.941Z,12.53
2017-10-18T20:34:45.210Z,14.57
2017-10-18T20:37:12.532Z,13.20
2017-10-18T20:39:39.842Z,13.70
2017-10-18T20:42:07.143Z,13.47
2017-10-18T20:44:34.475Z,16.93
2017-10-18T20:47:03.089Z,14.53
2017-10-18T20:49:32.503Z,13.70
2017-10-18T20:52:01.277Z,16.00
2017-10-18T20:54:30.569Z,15.67
2017-10-18T20:56:58.140Z,13.73
2017-10-18T20:59:25.511Z,16.70
2017-10-18T21:01:52.840Z,13.10
2017-10-18T21:04:20.137Z,15.00
2017-10-18T21:06:47.428Z,14.00
2017-10-18T21:09:14.781Z,14.60
2017-10-18T21:11:42.087Z,16.27
2017-10-18T21:14:09.383Z,18.53
2017-10-18T21:16:36.691Z,20.60
2017-10-18T21:19:03.996Z,14.67
2017-10-18T21:21:31.287Z,16.27
2017-10-18T21:23:58.607Z,17.73
2017-10-18T21:26:25.888Z,14.70
2017-10-18T21:28:53.223Z,14.77
2017-10-18T21:31:20.563Z,15.30
2017-10-18T21:33:47.902Z,17.63
2017-10-18T21:36:15.246Z,15.83
2017-10-18T21:38:42.593Z,15.83
2017-10-18T21:41:09.896Z,15.10
2017-10-18T21:43:37.208Z,14.67
2017-10-18T21:46:04.535Z,14.47
2017-10-18T21:48:31.835Z,16.23
2017-10-18T21:50:59.155Z,15.07
2017-10-18T21:53:26.463Z,15.27
2017-10-18T21:55:53.807Z,15.43
2017-10-18T21:58:21.107Z,13.23
2017-10-18T22:00:48.422Z,17.10
2017-10-18T22:03:15.732Z,13.90
2017-10-18T22:05:43.039Z,13.20
2017-10-18T22:08:10.440Z,13.00
2017-10-18T22:10:37.751Z,14.10
2017-10-18T22:13:05.079Z,13.10
2017-10-18T22:15:32.394Z,13.40
2017-10-18T22:17:59.675Z,12.30
2017-10-18T22:20:26.986Z,12.83
2017-10-18T22:22:54.266Z,13.50
2017-10-18T22:25:21.570Z,12.83
2017-10-18T22:27:48.889Z,12.90
2017-10-18T22:30:16.155Z,16.80
2017-10-18T22:32:43.451Z,12.80
2017-10-18T22:35:10.760Z,17.50
2017-10-18T22:37:38.036Z,13.77
2017-10-18T22:40:05.319Z,13.80
2017-10-18T22:42:32.619Z,15.40
2017-10-18T22:44:59.918Z,14.23
2017-10-18T22:47:27.234Z,12.80
2017-10-18T22:49:54.526Z,12.23
2017-10-18T22:52:21.811Z,13.30
2017-10-18T22:54:49.114Z,15.50
2017-10-18T22:57:16.391Z,18.07
2017-10-18T22:59:43.691Z,13.70
2017-10-18T23:02:10.983Z,12.47
2017-10-18T23:04:38.292Z,12.97
2017-10-18T23:07:05.559Z,13.00
2017-10-18T23:09:32.827Z,12.30
2017-10-18T23:12:00.137Z,13.13
2017-10-18T23:14:27.409Z,10.77
2017-10-18T23:16:54.702Z,13.80
2017-10-18T23:19:22.017Z,12.93
2017-10-18T23:21:49.284Z,14.47
2017-10-18T23:24:16.571Z,17.53
2017-10-18T23:26:43.882Z,12.73
2017-10-18T23:29:11.154Z,13.10
2017-10-18T23:31:38.428Z,12.43
2017-10-18T23:34:05.732Z,13.80
2017-10-18T23:36:33.039Z,12.50
2017-10-18T23:39:00.307Z,14.77
2017-10-18T23:41:27.581Z,12.20
2017-10-18T23:43:55.700Z,11.80
2017-10-18T23:46:22.976Z,14.27
2017-10-18T23:48:50.243Z,13.83
2017-10-18T23:51:17.552Z,14.63
2017-10-18T23:53:44.827Z,11.33
2017-10-18T23:56:12.131Z,12.90
2017-10-18T23:58:39.482Z,12.87
